createdAt,value
2022-12-18T16:13:04.317Z,11.13
2022-12-18T16:15:32.363Z,11.28
2022-12-18T16:18:00.375Z,11.45
2022-12-18T16:20:28.349Z,11.63
2022-12-18T16:22:56.323Z,11.79
2022-12-18T16:25:26.982Z,11.90
2022-12-18T16:27:56.267Z,11.93
2022-12-18T16:30:32.764Z,11.99
2022-12-18T16:33:07.467Z,12.14
2022-12-18T16:35:38.173Z,12.19
2022-12-18T16:38:06.598Z,12.25
2022-12-18T16:40:55.238Z,12.34
2022-12-18T16:43:23.351Z,12.52
2022-12-18T16:45:53.172Z,12.59
2022-12-18T16:48:21.167Z,12.70
2022-12-18T16:50:49.207Z,12.80
2022-12-18T16:53:17.716Z,12.93
2022-12-18T16:55:45.718Z,12.97
2022-12-18T16:58:13.652Z,12.99
2022-12-18T17:00:42.354Z,13.05
2022-12-18T17:03:11.846Z,13.11
2022-12-18T17:05:40.196Z,13.25
2022-12-18T17:08:08.138Z,13.30
2022-12-18T17:10:36.798Z,13.32
2022-12-18T17:13:04.812Z,13.31
2022-12-18T17:15:36.372Z,13.36
2022-12-18T17:18:04.728Z,13.46
2022-12-18T17:20:34.122Z,13.51
2022-12-18T17:23:02.076Z,13.59
2022-12-18T17:25:30.958Z,13.63
2022-12-18T17:27:58.963Z,13.70
2022-12-18T17:30:27.185Z,13.86
2022-12-18T17:32:55.231Z,13.77
2022-12-18T17:35:23.248Z,13.79
2022-12-18T17:37:52.611Z,13.90
2022-12-18T17:40:20.599Z,14.05
2022-12-18T17:42:48.605Z,14.11
2022-12-18T17:45:16.700Z,14.13
2022-12-18T17:47:44.741Z,14.17
2022-12-18T17:50:12.731Z,14.19
2022-12-18T17:52:40.759Z,14.19
2022-12-18T17:55:11.207Z,14.27
2022-12-18T17:57:39.225Z,14.34
2022-12-18T18:00:08.556Z,14.34
2022-12-18T18:02:36.675Z,14.40
2022-12-18T18:05:06.019Z,14.43
2022-12-18T18:07:34.125Z,14.48
2022-12-18T18:10:02.274Z,14.52
2022-12-18T18:12:49.126Z,14.56
2022-12-18T18:15:17.185Z,14.61
2022-12-18T18:17:45.398Z,14.64
2022-12-18T18:20:20.730Z,14.66
2022-12-18T18:22:50.387Z,14.73
2022-12-18T18:25:18.603Z,14.73
2022-12-18T18:27:48.496Z,14.72
2022-12-18T18:30:16.698Z,14.80
2022-12-18T18:32:44.677Z,14.84
2022-12-18T18:35:44.725Z,14.90
2022-12-18T18:38:00.944Z,14.95
2022-12-18T18:40:28.970Z,15.06
2022-12-18T18:42:58.710Z,15.13
2022-12-18T18:45:26.690Z,15.13
2022-12-18T18:47:54.879Z,15.14
2022-12-18T18:50:22.958Z,15.12
2022-12-18T18:52:51.051Z,15.14
2022-12-18T18:55:25.719Z,15.05
2022-12-18T18:57:54.010Z,15.10
2022-12-18T19:00:23.619Z,15.05
2022-12-18T19:02:55.184Z,15.10
2022-12-18T19:05:25.846Z,15.09
2022-12-18T19:07:53.862Z,15.09
2022-12-18T19:10:22.045Z,15.16
2022-12-18T19:13:07.446Z,15.18
2022-12-18T19:15:37.015Z,15.14
2022-12-18T19:18:05.476Z,15.15
2022-12-18T19:20:33.820Z,15.19
2022-12-18T19:23:01.868Z,15.29
2022-12-18T19:25:40.283Z,15.34
2022-12-18T19:28:12.015Z,15.28
2022-12-18T19:30:56.401Z,15.36
2022-12-18T19:33:42.460Z,15.38
2022-12-18T19:36:13.740Z,15.44
2022-12-18T19:38:45.228Z,15.32
2022-12-18T19:41:14.808Z,15.45
2022-12-18T19:43:43.158Z,15.48
2022-12-18T19:46:15.417Z,15.37
2022-12-18T19:48:44.555Z,15.47
2022-12-18T19:51:15.358Z,15.57
2022-12-18T19:53:43.448Z,15.63
2022-12-18T19:56:13.778Z,15.66
2022-12-18T19:58:42.047Z,15.69
2022-12-18T20:01:13.659Z,15.62
2022-12-18T20:03:51.627Z,15.66
2022-12-18T20:06:26.456Z,15.73
2022-12-18T20:09:00.688Z,15.73
2022-12-18T20:11:29.875Z,15.71
2022-12-18T20:13:58.268Z,15.79
2022-12-18T20:16:27.684Z,15.80
2022-12-18T20:18:55.759Z,15.86
2022-12-18T20:21:24.069Z,15.87
2022-12-18T20:23:52.096Z,15.93
2022-12-18T20:26:20.294Z,15.93
2022-12-18T20:28:48.276Z,15.95
2022-12-18T20:31:16.273Z,15.93
2022-12-18T20:33:45.831Z,15.97
2022-12-18T20:36:21.181Z,16.02
2022-12-18T20:38:50.208Z,16.04
2022-12-18T20:41:22.204Z,16.06
2022-12-18T20:43:50.756Z,16.08
2022-12-18T20:46:19.518Z,16.11
2022-12-18T20:48:49.280Z,16.09
2022-12-18T20:51:19.248Z,16.09
2022-12-18T20:53:48.822Z,16.12
2022-12-18T20:56:21.555Z,16.13
2022-12-18T20:58:50.471Z,16.08
2022-12-18T21:01:24.193Z,16.17
2022-12-18T21:03:54.658Z,16.18
2022-12-18T21:06:24.508Z,16.13
2022-12-18T21:08:53.349Z,16.14
2022-12-18T21:11:47.049Z,16.15
2022-12-18T21:14:19.333Z,16.14
2022-12-18T21:16:48.571Z,16.14
2022-12-18T21:19:20.905Z,16.15
2022-12-18T21:21:49.339Z,16.14
2022-12-18T21:24:17.575Z,16.07
2022-12-18T21:26:47.119Z,16.18
2022-12-18T21:29:16.911Z,16.17
2022-12-18T21:31:45.968Z,16.13
2022-12-18T21:34:18.457Z,16.12
2022-12-18T21:36:47.221Z,16.12
2022-12-18T21:39:16.632Z,16.16
2022-12-18T21:42:02.988Z,16.19
2022-12-18T21:44:34.859Z,16.16
2022-12-18T21:47:21.963Z,16.15
2022-12-18T21:49:54.005Z,16.16
2022-12-18T21:52:23.776Z,16.10
2022-12-18T21:55:06.287Z,16.12
2022-12-18T21:57:36.333Z,16.16
2022-12-18T22:00:05.677Z,16.13
2022-12-18T22:02:34.176Z,16.16
2022-12-18T22:05:03.645Z,16.16
2022-12-18T22:07:32.344Z,16.10
2022-12-18T22:10:02.022Z,16.10
